sensor_id;sensor_type;location;lat;lon;timestamp;pressure;altitude;pressure_sealevel;temperature;humidity
6224;BME280;3145;42.726;23.342;2022-12-10T00:01:04;94713.78;;;9.03;100.00
6224;BME280;3145;42.726;23.342;2022-12-10T00:03:30;94709.03;;;9.13;100.00
6224;BME280;3145;42.726;23.342;2022-12-10T00:06:00;94691.91;;;9.03;100.00
6224;BME280;3145;42.726;23.342;2022-12-10T00:08:27;94703.34;;;9.10;100.00
6224;BME280;3145;42.726;23.342;2022-12-10T00:10:54;94696.47;;;8.80;100.00
6224;BME280;3145;42.726;23.342;2022-12-10T00:13:21;94715.63;;;8.88;100.00
6224;BME280;3145;42.726;23.342;2022-12-10T00:15:48;94718.88;;;8.90;100.00
6224;BME280;3145;42.726;23.342;2022-12-10T00:18:14;94720.63;;;8.98;100.00
6224;BME280;3145;42.726;23.342;2022-12-10T00:20:41;94724.06;;;8.98;100.00
6224;BME280;3145;42.726;23.342;2022-12-10T00:23:09;94723.03;;;8.99;100.00
6224;BME280;3145;42.726;23.342;2022-12-10T00:25:36;94714.53;;;8.97;100.00
6224;BME280;3145;42.726;23.342;2022-12-10T00:28:03;94716.50;;;8.95;100.00
6224;BME280;3145;42.726;23.342;2022-12-10T00:30:29;94702.44;;;9.03;100.00
6224;BME280;3145;42.726;23.342;2022-12-10T00:32:56;94714.41;;;9.05;100.00
6224;BME280;3145;42.726;23.342;2022-12-10T00:35:23;94713.41;;;9.06;100.00
6224;BME280;3145;42.726;23.342;2022-12-10T00:37:50;94712.88;;;9.11;100.00
6224;BME280;3145;42.726;23.342;2022-12-10T00:40:18;94724.03;;;9.13;100.00
6224;BME280;3145;42.726;23.342;2022-12-10T00:42:44;94725.22;;;9.10;100.00
6224;BME280;3145;42.726;23.342;2022-12-10T00:45:11;94715.25;;;9.06;100.00
6224;BME280;3145;42.726;23.342;2022-12-10T00:47:38;94728.09;;;9.15;100.00
6224;BME280;3145;42.726;23.342;2022-12-10T00:50:05;94708.59;;;9.10;100.00
6224;BME280;3145;42.726;23.342;2022-12-10T00:52:32;94691.25;;;9.01;100.00
6224;BME280;3145;42.726;23.342;2022-12-10T00:54:58;94696.69;;;9.14;100.00
6224;BME280;3145;42.726;23.342;2022-12-10T00:57:26;94714.75;;;9.17;100.00
6224;BME280;3145;42.726;23.342;2022-12-10T00:59:53;94713.75;;;9.18;100.00
6224;BME280;3145;42.726;23.342;2022-12-10T01:02:20;94717.19;;;9.18;100.00
6224;BME280;3145;42.726;23.342;2022-12-10T01:04:46;94708.09;;;9.21;100.00
6224;BME280;3145;42.726;23.342;2022-12-10T01:07:13;94729.47;;;9.26;100.00
6224;BME280;3145;42.726;23.342;2022-12-10T01:09:40;94717.16;;;9.33;100.00
6224;BME280;3145;42.726;23.342;2022-12-10T01:12:07;94714.78;;;9.38;100.00
6224;BME280;3145;42.726;23.342;2022-12-10T01:14:35;94709.41;;;9.46;100.00
6224;BME280;3145;42.726;23.342;2022-12-10T01:17:04;94698.84;;;9.46;100.00
6224;BME280;3145;42.726;23.342;2022-12-10T01:19:32;94706.13;;;9.44;100.00
6224;BME280;3145;42.726;23.342;2022-12-10T01:21:59;94681.56;;;9.43;100.00
6224;BME280;3145;42.726;23.342;2022-12-10T01:24:27;94688.66;;;9.43;100.00
6224;BME280;3145;42.726;23.342;2022-12-10T01:26:54;94688.84;;;9.20;100.00
6224;BME280;3145;42.726;23.342;2022-12-10T01:29:22;94697.84;;;9.26;100.00
6224;BME280;3145;42.726;23.342;2022-12-10T01:31:52;94699.47;;;9.27;100.00
6224;BME280;3145;42.726;23.342;2022-12-10T01:34:19;94692.94;;;9.23;100.00
6224;BME280;3145;42.726;23.342;2022-12-10T01:36:50;94696.19;;;9.25;100.00
6224;BME280;3145;42.726;23.342;2022-12-10T01:39:18;94656.88;;;8.88;100.00
6224;BME280;3145;42.726;23.342;2022-12-10T01:41:47;94682.69;;;9.13;100.00
6224;BME280;3145;42.726;23.342;2022-12-10T01:47:20;94686.03;;;9.22;100.00
6224;BME280;3145;42.726;23.342;2022-12-10T01:49:47;94688.84;;;9.20;100.00
6224;BME280;3145;42.726;23.342;2022-12-10T01:52:14;94683.94;;;9.17;100.00
6224;BME280;3145;42.726;23.342;2022-12-10T01:54:43;94691.38;;;9.28;100.00
6224;BME280;3145;42.726;23.342;2022-12-10T01:57:12;94688.03;;;9.20;100.00
6224;BME280;3145;42.726;23.342;2022-12-10T01:59:41;94684.38;;;9.21;100.00
6224;BME280;3145;42.726;23.342;2022-12-10T02:02:13;94691.78;;;9.32;100.00
6224;BME280;3145;42.726;23.342;2022-12-10T02:04:51;94684.66;;;9.26;100.00
6224;BME280;3145;42.726;23.342;2022-12-10T02:07:26;94670.34;;;9.14;100.00
6224;BME280;3145;42.726;23.342;2022-12-10T02:09:58;94676.44;;;9.00;100.00
6224;BME280;3145;42.726;23.342;2022-12-10T02:12:44;94689.50;;;9.08;100.00
6224;BME280;3145;42.726;23.342;2022-12-10T02:15:16;94692.44;;;8.98;100.00
6224;BME280;3145;42.726;23.342;2022-12-10T02:17:45;94688.19;;;8.97;100.00
6224;BME280;3145;42.726;23.342;2022-12-10T02:20:17;94683.63;;;9.06;100.00
6224;BME280;3145;42.726;23.342;2022-12-10T02:22:49;94629.81;;;8.79;100.00
6224;BME280;3145;42.726;23.342;2022-12-10T02:25:19;94662.56;;;9.06;100.00
6224;BME280;3145;42.726;23.342;2022-12-10T02:27:52;94659.53;;;9.09;100.00
6224;BME280;3145;42.726;23.342;2022-12-10T02:30:22;94665.63;;;9.09;100.00
6224;BME280;3145;42.726;23.342;2022-12-10T02:32:49;94663.28;;;9.21;100.00
6224;BME280;3145;42.726;23.342;2022-12-10T02:35:20;94655.25;;;9.29;100.00
6224;BME280;3145;42.726;23.342;2022-12-10T02:37:52;94646.94;;;9.25;100.00
6224;BME280;3145;42.726;23.342;2022-12-10T02:40:23;94653.28;;;9.31;100.00
6224;BME280;3145;42.726;23.342;2022-12-10T02:42:52;94642.59;;;9.18;100.00
6224;BME280;3145;42.726;23.342;2022-12-10T02:45:22;94666.69;;;9.36;100.00
6224;BME280;3145;42.726;23.342;2022-12-10T02:47:50;94636.56;;;9.24;100.00
6224;BME280;3145;42.726;23.342;2022-12-10T02:50:21;94647.16;;;9.30;100.00
6224;BME280;3145;42.726;23.342;2022-12-10T02:52:48;94665.94;;;9.21;100.00
6224;BME280;3145;42.726;23.342;2022-12-10T02:55:14;94650.75;;;9.23;100.00
6224;BME280;3145;42.726;23.342;2022-12-10T02:57:45;94655.44;;;9.27;100.00
6224;BME280;3145;42.726;23.342;2022-12-10T03:00:16;94644.34;;;9.32;100.00
6224;BME280;3145;42.726;23.342;2022-12-10T03:03:08;94643.75;;;9.30;100.00
6224;BME280;3145;42.726;23.342;2022-12-10T03:05:42;94646.69;;;9.20;100.00
6224;BME280;3145;42.726;23.342;2022-12-10T03:08:15;94642.97;;;9.15;100.00
6224;BME280;3145;42.726;23.342;2022-12-10T03:10:50;94656.91;;;9.30;100.00
6224;BME280;3145;42.726;23.342;2022-12-10T03:13:21;94643.97;;;9.35;100.00
6224;BME280;3145;42.726;23.342;2022-12-10T03:15:51;94646.84;;;9.40;100.00
6224;BME280;3145;42.726;23.342;2022-12-10T03:18:22;94648.75;;;9.25;100.00
6224;BME280;3145;42.726;23.342;2022-12-10T03:20:52;94645.13;;;9.26;100.00
6224;BME280;3145;42.726;23.342;2022-12-10T03:23:21;94645.13;;;9.26;100.00
6224;BME280;3145;42.726;23.342;2022-12-10T03:25:49;94636.56;;;9.24;100.00
6224;BME280;3145;42.726;23.342;2022-12-10T03:28:18;94644.34;;;9.32;100.00
6224;BME280;3145;42.726;23.342;2022-12-10T03:30:47;94637.09;;;9.34;100.00
6224;BME280;3145;42.726;23.342;2022-12-10T03:33:15;94641.97;;;9.37;100.00
6224;BME280;3145;42.726;23.342;2022-12-10T03:35:44;94639.06;;;9.32;100.00
6224;BME280;3145;42.726;23.342;2022-12-10T03:38:12;94644.28;;;9.25;100.00
6224;BME280;3145;42.726;23.342;2022-12-10T03:40:40;94645.44;;;9.16;100.00
6224;BME280;3145;42.726;23.342;2022-12-10T03:43:07;94632.38;;;9.08;100.00
6224;BME280;3145;42.726;23.342;2022-12-10T03:45:33;94626.34;;;9.14;100.00
6224;BME280;3145;42.726;23.342;2022-12-10T03:48:00;94631.84;;;9.19;100.00
6224;BME280;3145;42.726;23.342;2022-12-10T03:50:27;94633.44;;;9.14;100.00
6224;BME280;3145;42.726;23.342;2022-12-10T03:52:55;94625.38;;;9.01;100.00
6224;BME280;3145;42.726;23.342;2022-12-10T03:58:43;94634.31;;;9.00;100.00
6224;BME280;3145;42.726;23.342;2022-12-10T04:01:10;94621.78;;;9.02;100.00
6224;BME280;3145;42.726;23.342;2022-12-10T04:03:38;94625.38;;;9.01;100.00
6224;BME280;3145;42.726;23.342;2022-12-10T04:06:10;94632.31;;;9.02;100.00
6224;BME280;3145;42.726;23.342;2022-12-10T04:08:38;94640.53;;;9.13;100.00
6224;BME280;3145;42.726;23.342;2022-12-10T04:11:06;94612.50;;;9.06;100.00
6224;BME280;3145;42.726;23.342;2022-12-10T04:13:34;94629.97;;;9.13;100.00
6224;BME280;3145;42.726;23.342;2022-12-10T04:16:18;94623.28;;;9.11;100.00
6224;BME280;3145;42.726;23.342;2022-12-10T04:18:57;94641.34;;;9.14;100.00
6224;BME280;3145;42.726;23.342;2022-12-10T04:21:24;94644.16;;;9.12;100.00
6224;BME280;3145;42.726;23.342;2022-12-10T04:24:10;94643.78;;;9.15;100.00
6224;BME280;3145;42.726;23.342;2022-12-10T04:26:55;94640.88;;;9.10;100.00
6224;BME280;3145;42.726;23.342;2022-12-10T04:29:24;94631.97;;;9.11;100.00
6224;BME280;3145;42.726;23.342;2022-12-10T04:31:51;94630.16;;;9.12;100.00
6224;BME280;3145;42.726;23.342;2022-12-10T04:34:18;94649.50;;;9.19;100.00
6224;BME280;3145;42.726;23.342;2022-12-10T04:36:46;94644.09;;;9.06;100.00
6224;BME280;3145;42.726;23.342;2022-12-10T04:39:14;94646.63;;;9.14;100.00
6224;BME280;3145;42.726;23.342;2022-12-10T04:41:43;94634.25;;;9.14;100.00
6224;BME280;3145;42.726;23.342;2022-12-10T04:44:14;94622.03;;;9.07;100.00
6224;BME280;3145;42.726;23.342;2022-12-10T04:46:44;94625.13;;;8.96;100.00
6224;BME280;3145;42.726;23.342;2022-12-10T04:49:14;94609.22;;;9.04;100.00
6224;BME280;3145;42.726;23.342;2022-12-10T04:51:42;94632.88;;;9.18;100.00
6224;BME280;3145;42.726;23.342;2022-12-10T04:54:16;94642.84;;;9.23;100.00
6224;BME280;3145;42.726;23.342;2022-12-10T04:56:51;94631.84;;;9.19;100.00
6224;BME280;3145;42.726;23.342;2022-12-10T04:59:22;94636.94;;;9.21;100.00
6224;BME280;3145;42.726;23.342;2022-12-10T05:01:49;94645.59;;;9.36;100.00
6224;BME280;3145;42.726;23.342;2022-12-10T05:04:17;94648.88;;;9.38;100.00
6224;BME280;3145;42.726;23.342;2022-12-10T05:06:44;94637.13;;;9.40;100.00
6224;BME280;3145;42.726;23.342;2022-12-10T05:09:12;94645.09;;;9.47;100.00
6224;BME280;3145;42.726;23.342;2022-12-10T05:11:40;94641.63;;;9.46;100.00
6224;BME280;3145;42.726;23.342;2022-12-10T05:14:08;94635.44;;;9.33;100.00
6224;BME280;3145;42.726;23.342;2022-12-10T05:16:36;94638.34;;;9.38;100.00
6224;BME280;3145;42.726;23.342;2022-12-10T05:19:03;94643.16;;;9.34;100.00
6224;BME280;3145;42.726;23.342;2022-12-10T05:21:30;94639.84;;;9.26;100.00
6224;BME280;3145;42.726;23.342;2022-12-10T05:24:10;94624.28;;;9.10;100.00
6224;BME280;3145;42.726;23.342;2022-12-10T05:26:37;94628.97;;;9.14;100.00
6224;BME280;3145;42.726;23.342;2022-12-10T05:29:05;94625.53;;;9.14;100.00
6224;BME280;3145;42.726;23.342;2022-12-10T05:31:32;94628.78;;;9.16;100.00
6224;BME280;3145;42.726;23.342;2022-12-10T05:33:59;94625.97;;;9.17;100.00
6224;BME280;3145;42.726;23.342;2022-12-10T05:36:27;94615.38;;;9.11;100.00
6224;BME280;3145;42.726;23.342;2022-12-10T05:38:55;94622.78;;;9.22;100.00
6224;BME280;3145;42.726;23.342;2022-12-10T05:41:23;94617.09;;;9.25;100.00
6224;BME280;3145;42.726;23.342;2022-12-10T05:43:52;94629.69;;;9.23;100.00
6224;BME280;3145;42.726;23.342;2022-12-10T05:46:22;94622.38;;;9.25;100.00
6224;BME280;3145;42.726;23.342;2022-12-10T05:48:50;94630.56;;;9.30;100.00
6224;BME280;3145;42.726;23.342;2022-12-10T05:51:18;94648.38;;;9.28;100.00
6224;BME280;3145;42.726;23.342;2022-12-10T05:53:45;94651.66;;;9.30;100.00
6224;BME280;3145;42.726;23.342;2022-12-10T05:56:14;94640.28;;;9.29;100.00
6224;BME280;3145;42.726;23.342;2022-12-10T05:58:43;94650.50;;;9.39;100.00
6224;BME280;3145;42.726;23.342;2022-12-10T06:01:12;94664.25;;;9.34;100.00
6224;BME280;3145;42.726;23.342;2022-12-10T06:03:41;94650.88;;;9.36;100.00
6224;BME280;3145;42.726;23.342;2022-12-10T06:06:08;94649.50;;;9.40;100.00
6224;BME280;3145;42.726;23.342;2022-12-10T06:08:35;94647.75;;;9.47;100.00
6224;BME280;3145;42.726;23.342;2022-12-10T06:11:03;94657.03;;;9.43;100.00
6224;BME280;3145;42.726;23.342;2022-12-10T06:13:30;94657.03;;;9.43;100.00
6224;BME280;3145;42.726;23.342;2022-12-10T06:15:56;94656.66;;;9.46;100.00
6224;BME280;3145;42.726;23.342;2022-12-10T06:18:23;94654.69;;;9.54;100.00
6224;BME280;3145;42.726;23.342;2022-12-10T06:20:51;94655.75;;;9.60;100.00
6224;BME280;3145;42.726;23.342;2022-12-10T06:23:18;94651.38;;;9.67;100.00
6224;BME280;3145;42.726;23.342;2022-12-10T06:25:45;94648.34;;;9.70;100.00
6224;BME280;3145;42.726;23.342;2022-12-10T06:28:11;94628.38;;;9.61;100.00
6224;BME280;3145;42.726;23.342;2022-12-10T06:30:38;94641.50;;;9.76;100.00
6224;BME280;3145;42.726;23.342;2022-12-10T06:33:05;94640.38;;;9.64;100.00
6224;BME280;3145;42.726;23.342;2022-12-10T06:35:31;94638.41;;;9.72;100.00
6224;BME280;3145;42.726;23.342;2022-12-10T06:37:59;94634.97;;;9.72;100.00
6224;BME280;3145;42.726;23.342;2022-12-10T06:40:26;94635.78;;;9.72;100.00
6224;BME280;3145;42.726;23.342;2022-12-10T06:42:53;94647.63;;;9.83;100.00
6224;BME280;3145;42.726;23.342;2022-12-10T06:45:20;94650.31;;;9.89;100.00
6224;BME280;3145;42.726;23.342;2022-12-10T06:47:46;94643.03;;;9.91;100.00
6224;BME280;3145;42.726;23.342;2022-12-10T06:50:13;94633.31;;;9.92;100.00
6224;BME280;3145;42.726;23.342;2022-12-10T06:52:40;94644.03;;;9.90;100.00
6224;BME280;3145;42.726;23.342;2022-12-10T06:55:08;94647.34;;;9.99;100.00
6224;BME280;3145;42.726;23.342;2022-12-10T06:57:35;94653.06;;;10.02;100.00
6224;BME280;3145;42.726;23.342;2022-12-10T07:00:02;94650.56;;;9.94;100.00
6224;BME280;3145;42.726;23.342;2022-12-10T07:02:29;94652.69;;;10.05;100.00
6224;BME280;3145;42.726;23.342;2022-12-10T07:04:56;94665.31;;;10.10;100.00
6224;BME280;3145;42.726;23.342;2022-12-10T07:07:23;94669.88;;;10.22;100.00
6224;BME280;3145;42.726;23.342;2022-12-10T07:09:49;94663.19;;;10.26;100.00
6224;BME280;3145;42.726;23.342;2022-12-10T07:12:17;94667.22;;;10.22;100.00
6224;BME280;3145;42.726;23.342;2022-12-10T07:14:44;94675.53;;;10.19;100.00
6224;BME280;3145;42.726;23.342;2022-12-10T07:17:11;94658.44;;;10.15;100.00
6224;BME280;3145;42.726;23.342;2022-12-10T07:19:37;94652.16;;;10.16;100.00
6224;BME280;3145;42.726;23.342;2022-12-10T07:22:04;94650.00;;;10.26;100.00
6224;BME280;3145;42.726;23.342;2022-12-10T07:24:31;94645.16;;;10.36;100.00
6224;BME280;3145;42.726;23.342;2022-12-10T07:26:57;94631.16;;;10.36;100.00
6224;BME280;3145;42.726;23.342;2022-12-10T07:29:25;94626.50;;;10.38;100.00
6224;BME280;3145;42.726;23.342;2022-12-10T07:31:52;94626.94;;;10.41;100.00
6224;BME280;3145;42.726;23.342;2022-12-10T07:34:20;94635.06;;;10.46;100.00
6224;BME280;3145;42.726;23.342;2022-12-10T07:36:46;94637.94;;;10.51;100.00
6224;BME280;3145;42.726;23.342;2022-12-10T07:39:13;94635.94;;;10.53;100.00
6224;BME280;3145;42.726;23.342;2022-12-10T07:41:43;94619.22;;;10.40;100.00
6224;BME280;3145;42.726;23.342;2022-12-10T07:44:11;94626.31;;;10.46;100.00
6224;BME280;3145;42.726;23.342;2022-12-10T07:46:40;94622.91;;;10.52;100.00
6224;BME280;3145;42.726;23.342;2022-12-10T07:49:06;94629.03;;;10.59;100.00
6224;BME280;3145;42.726;23.342;2022-12-10T07:51:33;94629.47;;;10.62;100.00
6224;BME280;3145;42.726;23.342;2022-12-10T07:54:00;94629.69;;;10.67;100.00
6224;BME280;3145;42.726;23.342;2022-12-10T07:56:27;94620.16;;;10.79;100.00
6224;BME280;3145;42.726;23.342;2022-12-10T07:58:54;94617.16;;;10.89;100.00
6224;BME280;3145;42.726;23.342;2022-12-10T08:01:23;94605.16;;;10.86;100.00
6224;BME280;3145;42.726;23.342;2022-12-10T08:03:52;94602.53;;;10.86;100.00
6224;BME280;3145;42.726;23.342;2022-12-10T08:06:21;94608.66;;;11.00;100.00
6224;BME280;3145;42.726;23.342;2022-12-10T08:08:49;94609.25;;;10.95;100.00
6224;BME280;3145;42.726;23.342;2022-12-10T08:11:18;94596.25;;;11.00;100.00
6224;BME280;3145;42.726;23.342;2022-12-10T08:13:45;94602.38;;;11.07;100.00
6224;BME280;3145;42.726;23.342;2022-12-10T08:16:14;94608.88;;;11.05;100.00
6224;BME280;3145;42.726;23.342;2022-12-10T08:18:41;94590.34;;;10.85;100.00
6224;BME280;3145;42.726;23.342;2022-12-10T08:21:11;94605.59;;;10.96;100.00
6224;BME280;3145;42.726;23.342;2022-12-10T08:23:39;94600.13;;;11.04;100.00
6224;BME280;3145;42.726;23.342;2022-12-10T08:26:07;94601.31;;;11.02;100.00
6224;BME280;3145;42.726;23.342;2022-12-10T08:28:34;94614.97;;;11.05;100.00
6224;BME280;3145;42.726;23.342;2022-12-10T08:31:02;94594.59;;;10.86;100.00
6224;BME280;3145;42.726;23.342;2022-12-10T08:33:29;94599.69;;;10.94;100.00
6224;BME280;3145;42.726;23.342;2022-12-10T08:35:57;94599.91;;;10.99;100.00
6224;BME280;3145;42.726;23.342;2022-12-10T08:38:25;94602.34;;;10.94;100.00
6224;BME280;3145;42.726;23.342;2022-12-10T08:40:52;94602.75;;;11.04;100.00
6224;BME280;3145;42.726;23.342;2022-12-10T08:43:18;94592.59;;;10.95;100.00
6224;BME280;3145;42.726;23.342;2022-12-10T08:45:45;94571.03;;;10.98;100.00
6224;BME280;3145;42.726;23.342;2022-12-10T08:48:12;94584.88;;;10.93;100.00
6224;BME280;3145;42.726;23.342;2022-12-10T08:50:39;94587.13;;;11.09;100.00
6224;BME280;3145;42.726;23.342;2022-12-10T08:53:06;94579.81;;;11.11;100.00
6224;BME280;3145;42.726;23.342;2022-12-10T08:55:37;94573.72;;;11.17;100.00
6224;BME280;3145;42.726;23.342;2022-12-10T08:58:04;94570.66;;;11.20;100.00
6224;BME280;3145;42.726;23.342;2022-12-10T09:00:31;94554.41;;;11.23;100.00
6224;BME280;3145;42.726;23.342;2022-12-10T09:02:58;94552.38;;;11.38;100.00
6224;BME280;3145;42.726;23.342;2022-12-10T09:05:25;94547.88;;;11.58;100.00
6224;BME280;3145;42.726;23.342;2022-12-10T09:07:51;94550.34;;;11.73;100.00
6224;BME280;3145;42.726;23.342;2022-12-10T09:10:18;94543.03;;;11.81;100.00
6224;BME280;3145;42.726;23.342;2022-12-10T09:12:47;94546.00;;;12.17;100.00
6224;BME280;3145;42.726;23.342;2022-12-10T09:15:14;94531.84;;;12.43;100.00
6224;BME280;3145;42.726;23.342;2022-12-10T09:17:41;94553.72;;;12.69;100.00
6224;BME280;3145;42.726;23.342;2022-12-10T09:20:08;94549.09;;;13.02;100.00
6224;BME280;3145;42.726;23.342;2022-12-10T09:22:35;94542.84;;;13.21;100.00
6224;BME280;3145;42.726;23.342;2022-12-10T09:25:03;94542.81;;;13.28;100.00
6224;BME280;3145;42.726;23.342;2022-12-10T09:27:30;94540.72;;;13.36;100.00
6224;BME280;3145;42.726;23.342;2022-12-10T09:29:58;94526.41;;;13.37;100.00
6224;BME280;3145;42.726;23.342;2022-12-10T09:32:25;94532.63;;;13.49;100.00
6224;BME280;3145;42.726;23.342;2022-12-10T09:34:52;94522.13;;;13.36;100.00
6224;BME280;3145;42.726;23.342;2022-12-10T09:37:19;94519.38;;;13.49;100.00
6224;BME280;3145;42.726;23.342;2022-12-10T09:39:46;94524.66;;;13.49;100.00
6224;BME280;3145;42.726;23.342;2022-12-10T09:42:21;94523.06;;;13.48;100.00
6224;BME280;3145;42.726;23.342;2022-12-10T09:45:00;94512.03;;;13.69;100.00
6224;BME280;3145;42.726;23.342;2022-12-10T09:47:34;94505.75;;;13.64;100.00
6224;BME280;3145;42.726;23.342;2022-12-10T09:50:09;94501.75;;;13.98;100.00
6224;BME280;3145;42.726;23.342;2022-12-10T09:52:41;94480.22;;;13.88;100.00
6224;BME280;3145;42.726;23.342;2022-12-10T09:55:12;94483.75;;;14.00;100.00
6224;BME280;3145;42.726;23.342;2022-12-10T09:57:42;94484.41;;;13.77;100.00
6224;BME280;3145;42.726;23.342;2022-12-10T10:00:19;94470.47;;;13.63;100.00
6224;BME280;3145;42.726;23.342;2022-12-10T10:02:48;94476.81;;;13.98;100.00
6224;BME280;3145;42.726;23.342;2022-12-10T10:05:20;94476.81;;;14.17;100.00
6224;BME280;3145;42.726;23.342;2022-12-10T10:07:50;94481.25;;;14.05;100.00
6224;BME280;3145;42.726;23.342;2022-12-10T10:10:24;94482.06;;;14.05;100.00
6224;BME280;3145;42.726;23.342;2022-12-10T10:12:53;94481.78;;;14.31;100.00
6224;BME280;3145;42.726;23.342;2022-12-10T10:15:26;94475.09;;;14.58;100.00
6224;BME280;3145;42.726;23.342;2022-12-10T10:17:58;94476.78;;;14.41;100.00
6224;BME280;3145;42.726;23.342;2022-12-10T10:20:25;94471.19;;;14.61;100.00
6224;BME280;3145;42.726;23.342;2022-12-10T10:22:53;94462.06;;;14.68;100.00
6224;BME280;3145;42.726;23.342;2022-12-10T10:25:22;94468.41;;;14.85;100.00
6224;BME280;3145;42.726;23.342;2022-12-10T10:27:49;94467.56;;;14.85;100.00
6224;BME280;3145;42.726;23.342;2022-12-10T10:30:18;94461.91;;;14.52;100.00
6224;BME280;3145;42.726;23.342;2022-12-10T10:32:49;94448.31;;;14.60;100.00
6224;BME280;3145;42.726;23.342;2022-12-10T10:35:31;94430.03;;;14.34;100.00
6224;BME280;3145;42.726;23.342;2022-12-10T10:38:01;94431.22;;;14.38;100.00
6224;BME280;3145;42.726;23.342;2022-12-10T10:40:33;94418.81;;;14.32;100.00
6224;BME280;3145;42.726;23.342;2022-12-10T10:43:06;94413.38;;;14.27;100.00
6224;BME280;3145;42.726;23.342;2022-12-10T10:45:40;94415.72;;;14.17;100.00
6224;BME280;3145;42.726;23.342;2022-12-10T10:48:13;94428.09;;;14.41;100.00
6224;BME280;3145;42.726;23.342;2022-12-10T10:50:43;94435.31;;;14.52;100.00
6224;BME280;3145;42.726;23.342;2022-12-10T10:53:28;94429.38;;;14.38;100.00
6224;BME280;3145;42.726;23.342;2022-12-10T10:55:59;94427.66;;;14.44;100.00
6224;BME280;3145;42.726;23.342;2022-12-10T10:58:28;94436.22;;;14.46;100.00
6224;BME280;3145;42.726;23.342;2022-12-10T11:00:57;94434.41;;;14.58;100.00
6224;BME280;3145;42.726;23.342;2022-12-10T11:03:27;94412.88;;;14.48;100.00
6224;BME280;3145;42.726;23.342;2022-12-10T11:05:54;94406.84;;;14.41;100.00
6224;BME280;3145;42.726;23.342;2022-12-10T11:08:24;94403.75;;;14.44;100.00
6224;BME280;3145;42.726;23.342;2022-12-10T11:10:56;94402.56;;;14.40;100.00
6224;BME280;3145;42.726;23.342;2022-12-10T11:13:28;94387.91;;;14.49;100.00
6224;BME280;3145;42.726;23.342;2022-12-10T11:15:58;94386.56;;;14.58;100.00
6224;BME280;3145;42.726;23.342;2022-12-10T11:18:31;94377.72;;;14.46;100.00
6224;BME280;3145;42.726;23.342;2022-12-10T11:21:01;94372.88;;;14.43;100.00
6224;BME280;3145;42.726;23.342;2022-12-10T11:23:29;94353.47;;;14.54;100.00
6224;BME280;3145;42.726;23.342;2022-12-10T11:26:02;94357.53;;;14.56;100.00
6224;BME280;3145;42.726;23.342;2022-12-10T11:28:42;94345.06;;;14.68;100.00
6224;BME280;3145;42.726;23.342;2022-12-10T11:31:21;94347.31;;;14.83;100.00
6224;BME280;3145;42.726;23.342;2022-12-10T11:33:59;94333.88;;;14.78;100.00
6224;BME280;3145;42.726;23.342;2022-12-10T11:36:35;94339.69;;;14.98;100.00
6224;BME280;3145;42.726;23.342;2022-12-10T11:39:16;94346.16;;;15.02;100.00
6224;BME280;3145;42.726;23.342;2022-12-10T11:41:49;94344.22;;;15.09;100.00
6224;BME280;3145;42.726;23.342;2022-12-10T11:44:25;94345.72;;;15.28;100.00
6224;BME280;3145;42.726;23.342;2022-12-10T11:47:15;94352.56;;;15.35;100.00
6224;BME280;3145;42.726;23.342;2022-12-10T11:50:00;94352.47;;;15.42;100.00
6224;BME280;3145;42.726;23.342;2022-12-10T11:52:40;94348.28;;;15.46;100.00
6224;BME280;3145;42.726;23.342;2022-12-10T11:55:21;94342.47;;;15.26;100.00
6224;BME280;3145;42.726;23.342;2022-12-10T11:58:00;94332.31;;;15.23;100.00
6224;BME280;3145;42.726;23.342;2022-12-10T12:00:34;94326.88;;;15.41;100.00
6224;BME280;3145;42.726;23.342;2022-12-10T12:03:15;94329.16;;;15.60;100.00
6224;BME280;3145;42.726;23.342;2022-12-10T12:05:56;94335.88;;;15.63;100.00
6224;BME280;3145;42.726;23.342;2022-12-10T12:08:38;94321.41;;;15.59;100.00
6224;BME280;3145;42.726;23.342;2022-12-10T12:11:21;94302.00;;;15.47;100.00
6224;BME280;3145;42.726;23.342;2022-12-10T12:13:55;94320.34;;;15.60;100.00
6224;BME280;3145;42.726;23.342;2022-12-10T12:16:30;94309.59;;;15.55;100.00
6224;BME280;3145;42.726;23.342;2022-12-10T12:19:00;94296.66;;;15.47;100.00
6224;BME280;3145;42.726;23.342;2022-12-10T12:21:30;94294.00;;;15.35;100.00
6224;BME280;3145;42.726;23.342;2022-12-10T12:24:00;94294.69;;;15.31;100.00
6224;BME280;3145;42.726;23.342;2022-12-10T12:26:30;94285.78;;;15.37;100.00
6224;BME280;3145;42.726;23.342;2022-12-10T12:29:09;94280.88;;;15.34;100.00
6224;BME280;3145;42.726;23.342;2022-12-10T12:31:40;94283.00;;;15.32;100.00
6224;BME280;3145;42.726;23.342;2022-12-10T12:34:17;94276.78;;;15.38;100.00
6224;BME280;3145;42.726;23.342;2022-12-10T12:36:46;94269.03;;;15.36;100.00
6224;BME280;3145;42.726;23.342;2022-12-10T12:39:18;94263.78;;;15.41;100.00
6224;BME280;3145;42.726;23.342;2022-12-10T12:41:53;94244.84;;;15.38;100.00
6224;BME280;3145;42.726;23.342;2022-12-10T12:44:25;94258.59;;;15.35;100.00
6224;BME280;3145;42.726;23.342;2022-12-10T12:46:56;94251.50;;;15.29;100.00
6224;BME280;3145;42.726;23.342;2022-12-10T12:49:29;94240.66;;;15.19;100.00
6224;BME280;3145;42.726;23.342;2022-12-10T12:52:00;94235.72;;;15.11;100.00
6224;BME280;3145;42.726;23.342;2022-12-10T12:54:28;94246.34;;;15.11;100.00
6224;BME280;3145;42.726;23.342;2022-12-10T12:57:03;94245.31;;;15.12;100.00
6224;BME280;3145;42.726;23.342;2022-12-10T12:59:43;94199.06;;;14.90;100.00
6224;BME280;3145;42.726;23.342;2022-12-10T13:02:22;94230.25;;;15.06;100.00
6224;BME280;3145;42.726;23.342;2022-12-10T13:04:50;94244.16;;;15.08;100.00
6224;BME280;3145;42.726;23.342;2022-12-10T13:07:31;94234.66;;;15.12;100.00
6224;BME280;3145;42.726;23.342;2022-12-10T13:10:22;94229.34;;;15.12;100.00
6224;BME280;3145;42.726;23.342;2022-12-10T13:12:51;94219.06;;;14.92;100.00
6224;BME280;3145;42.726;23.342;2022-12-10T13:15:34;94223.09;;;14.83;100.00
6224;BME280;3145;42.726;23.342;2022-12-10T13:21:25;94224.03;;;14.89;100.00
6224;BME280;3145;42.726;23.342;2022-12-10T13:24:03;94214.22;;;14.89;100.00
6224;BME280;3145;42.726;23.342;2022-12-10T13:26:32;94205.88;;;14.86;100.00
6224;BME280;3145;42.726;23.342;2022-12-10T13:29:12;94208.91;;;14.89;100.00